createdAt,value
2017-05-06T00:01:37.919Z,16.57
2017-05-06T00:04:04.531Z,17.02
2017-05-06T00:06:31.167Z,15.22
2017-05-06T00:08:57.790Z,15.17
2017-05-06T00:11:24.406Z,16.22
2017-05-06T00:13:51.035Z,15.72
2017-05-06T00:16:17.648Z,17.02
2017-05-06T00:18:44.258Z,17.17
2017-05-06T00:21:10.902Z,14.27
2017-05-06T00:23:37.519Z,16.17
2017-05-06T00:26:04.130Z,16.22
2017-05-06T00:28:31.038Z,16.07
2017-05-06T00:30:57.687Z,15.15
2017-05-06T00:33:24.303Z,16.25
2017-05-06T00:35:50.938Z,15.13
2017-05-06T00:38:17.551Z,16.20
2017-05-06T00:40:44.172Z,16.17
2017-05-06T00:43:10.908Z,15.13
2017-05-06T00:45:37.522Z,15.50
2017-05-06T00:48:04.135Z,15.95
2017-05-06T00:50:30.770Z,15.00
2017-05-06T00:52:57.387Z,16.62
2017-05-06T00:55:24.006Z,15.82
2017-05-06T00:57:50.638Z,18.72
2017-05-06T01:00:17.252Z,20.85
2017-05-06T01:02:43.864Z,22.20
2017-05-06T01:05:10.497Z,24.78
2017-05-06T01:07:37.118Z,30.72
2017-05-06T01:10:03.734Z,29.97
2017-05-06T01:12:30.367Z,39.27
2017-05-06T01:14:56.983Z,37.40
2017-05-06T01:17:23.596Z,36.67
2017-05-06T01:19:50.223Z,36.17
2017-05-06T01:22:16.840Z,37.22
2017-05-06T01:24:43.459Z,33.20
2017-05-06T01:27:10.091Z,28.87
2017-05-06T01:29:36.703Z,26.90
2017-05-06T01:32:03.318Z,31.53
2017-05-06T01:34:29.953Z,32.85
2017-05-06T01:36:56.571Z,34.70
2017-05-06T01:39:23.187Z,31.67
2017-05-06T01:41:49.819Z,34.50
2017-05-06T01:44:16.538Z,32.05
2017-05-06T01:46:43.156Z,29.95
2017-05-06T01:49:09.804Z,26.42
2017-05-06T01:51:36.418Z,30.23
2017-05-06T01:54:03.033Z,35.90
2017-05-06T01:56:29.674Z,36.75
2017-05-06T01:58:56.291Z,32.58
2017-05-06T02:01:22.915Z,33.05
2017-05-06T02:03:49.557Z,31.35
2017-05-06T02:06:16.193Z,33.55
2017-05-06T02:08:42.811Z,36.03
2017-05-06T02:11:09.447Z,36.42
2017-05-06T02:13:36.070Z,33.27
2017-05-06T02:16:02.683Z,32.25
2017-05-06T02:18:29.445Z,29.32
2017-05-06T02:20:56.065Z,27.83
2017-05-06T02:23:22.698Z,27.52
2017-05-06T02:25:49.341Z,27.08
2017-05-06T02:28:17.869Z,25.23
2017-05-06T02:30:44.523Z,23.18
2017-05-06T02:33:11.191Z,22.55
2017-05-06T02:35:37.831Z,24.78
2017-05-06T02:38:04.454Z,24.37
2017-05-06T02:40:31.093Z,30.85
2017-05-06T02:42:57.720Z,34.80
2017-05-06T02:45:24.335Z,35.38
2017-05-06T02:47:50.974Z,37.45
2017-05-06T02:50:18.267Z,36.13
2017-05-06T02:52:44.879Z,38.88
2017-05-06T02:55:11.515Z,36.87
2017-05-06T02:57:38.143Z,36.82
2017-05-06T03:00:04.807Z,31.48
2017-05-06T03:02:31.443Z,29.38
2017-05-06T03:04:58.055Z,26.52
2017-05-06T03:07:24.666Z,25.87
2017-05-06T03:09:51.303Z,27.60
2017-05-06T03:12:17.919Z,25.53
2017-05-06T03:14:44.539Z,24.53
2017-05-06T03:17:11.171Z,26.40
2017-05-06T03:19:37.782Z,24.68
2017-05-06T03:22:04.399Z,23.88
2017-05-06T03:24:31.039Z,26.77
2017-05-06T03:26:57.655Z,25.08
2017-05-06T03:29:24.266Z,24.40
2017-05-06T03:31:50.906Z,25.68
2017-05-06T03:34:17.523Z,27.15
2017-05-06T03:36:44.138Z,25.80
2017-05-06T03:39:10.772Z,31.70
2017-05-06T03:41:37.396Z,33.58
2017-05-06T03:44:04.011Z,36.35
2017-05-06T03:46:30.647Z,32.22
2017-05-06T03:48:57.262Z,33.20
2017-05-06T03:51:23.879Z,34.15
2017-05-06T03:53:50.516Z,32.05
2017-05-06T03:56:17.128Z,30.62
2017-05-06T03:58:43.746Z,32.80
2017-05-06T04:01:10.384Z,35.18
2017-05-06T04:03:37.003Z,39.65
2017-05-06T04:06:03.615Z,34.00
2017-05-06T04:08:30.250Z,36.67
2017-05-06T04:10:56.865Z,38.37
2017-05-06T04:13:23.483Z,36.87
2017-05-06T04:15:50.115Z,38.38
2017-05-06T04:18:16.733Z,34.78
2017-05-06T04:20:43.347Z,34.78
2017-05-06T04:23:09.984Z,34.57
2017-05-06T04:25:36.597Z,32.85
2017-05-06T04:28:03.208Z,31.68
2017-05-06T04:30:29.900Z,28.65
2017-05-06T04:32:56.512Z,26.62
2017-05-06T04:35:23.219Z,28.12
2017-05-06T04:37:49.867Z,27.65
2017-05-06T04:40:16.479Z,25.80
2017-05-06T04:42:43.092Z,25.63
2017-05-06T04:45:09.730Z,24.02
2017-05-06T04:47:36.348Z,23.95
2017-05-06T04:50:02.958Z,24.78
2017-05-06T04:52:29.591Z,28.22
2017-05-06T04:54:56.210Z,25.18
2017-05-06T04:57:22.835Z,24.17
2017-05-06T04:59:49.467Z,24.98
2017-05-06T05:02:16.081Z,25.32
2017-05-06T05:04:42.699Z,30.47
2017-05-06T05:07:09.339Z,29.42
2017-05-06T05:09:35.951Z,30.78
2017-05-06T05:12:02.563Z,29.25
2017-05-06T05:14:29.198Z,28.95
2017-05-06T05:16:55.812Z,28.58
2017-05-06T05:19:22.432Z,31.37
2017-05-06T05:21:49.062Z,30.68
2017-05-06T05:24:15.675Z,29.47
2017-05-06T05:26:42.286Z,33.23
2017-05-06T05:29:08.922Z,33.55
2017-05-06T05:31:35.538Z,31.35
2017-05-06T05:34:02.154Z,31.13
2017-05-06T05:36:28.783Z,35.73
2017-05-06T05:38:55.394Z,36.33
2017-05-06T05:41:22.006Z,35.28
2017-05-06T05:43:48.641Z,33.67
2017-05-06T05:46:15.256Z,35.37
2017-05-06T05:48:41.915Z,32.18
2017-05-06T05:51:08.550Z,29.60
2017-05-06T05:53:35.162Z,30.38
2017-05-06T05:56:01.782Z,28.85
2017-05-06T05:58:28.410Z,30.12
2017-05-06T06:00:55.023Z,28.53
2017-05-06T06:03:21.634Z,27.17
2017-05-06T06:05:48.267Z,28.87
2017-05-06T06:08:14.884Z,28.15
2017-05-06T06:10:41.499Z,27.45
2017-05-06T06:13:08.127Z,28.15
2017-05-06T06:15:34.743Z,23.92
2017-05-06T06:18:01.446Z,34.30
2017-05-06T06:20:28.125Z,24.33
2017-05-06T06:22:54.748Z,23.10
2017-05-06T06:25:21.365Z,23.13
2017-05-06T06:27:47.999Z,23.55
2017-05-06T06:30:14.611Z,23.27
2017-05-06T06:32:41.227Z,21.23
2017-05-06T06:35:07.859Z,20.78
2017-05-06T06:37:34.475Z,20.35
2017-05-06T06:40:01.198Z,20.55
2017-05-06T06:42:27.831Z,21.83
2017-05-06T06:44:54.443Z,20.43
2017-05-06T06:47:21.071Z,23.92
2017-05-06T06:49:47.711Z,21.58
2017-05-06T06:52:14.395Z,21.80
2017-05-06T06:54:41.019Z,21.13
2017-05-06T06:57:07.659Z,20.22
2017-05-06T06:59:34.279Z,22.45
2017-05-06T07:02:00.903Z,20.93
2017-05-06T07:04:27.902Z,18.47
2017-05-06T07:06:54.522Z,21.93
2017-05-06T07:09:21.139Z,19.78
2017-05-06T07:11:47.823Z,19.93
2017-05-06T07:14:14.435Z,20.83
2017-05-06T07:16:41.054Z,18.45
2017-05-06T07:19:07.686Z,17.68
2017-05-06T07:21:34.299Z,16.35
2017-05-06T07:24:00.923Z,16.80
2017-05-06T07:26:27.553Z,16.50
2017-05-06T07:28:54.167Z,15.38
2017-05-06T07:31:20.787Z,15.30
2017-05-06T07:33:47.419Z,15.92
2017-05-06T07:36:14.063Z,15.90
2017-05-06T07:38:40.678Z,16.58
2017-05-06T07:41:07.314Z,17.15
2017-05-06T07:43:33.927Z,15.97
2017-05-06T07:46:00.543Z,18.05
2017-05-06T07:48:27.179Z,16.78
2017-05-06T07:50:53.794Z,16.10
2017-05-06T07:53:20.474Z,17.17
2017-05-06T07:55:47.111Z,18.25
2017-05-06T07:58:13.727Z,15.70
2017-05-06T08:00:40.342Z,15.72
2017-05-06T08:03:06.975Z,16.73
2017-05-06T08:05:33.586Z,16.33
2017-05-06T08:08:00.205Z,15.42
2017-05-06T08:10:26.843Z,15.15
2017-05-06T08:12:53.454Z,13.97
2017-05-06T08:15:20.075Z,14.53
2017-05-06T08:17:46.711Z,15.60
2017-05-06T08:20:13.439Z,14.87
2017-05-06T08:22:40.063Z,15.48
2017-05-06T08:25:06.694Z,17.10
2017-05-06T08:27:33.306Z,15.05
2017-05-06T08:29:59.923Z,15.48
2017-05-06T08:32:26.596Z,13.92
2017-05-06T08:34:53.215Z,13.85
2017-05-06T08:37:19.835Z,13.15
2017-05-06T08:39:46.475Z,12.45
2017-05-06T08:42:13.088Z,12.78
2017-05-06T08:44:39.703Z,11.42
2017-05-06T08:47:06.336Z,13.62
2017-05-06T08:49:32.951Z,13.07
2017-05-06T08:51:59.571Z,11.57
2017-05-06T08:54:26.206Z,13.43
2017-05-06T08:56:52.827Z,11.77
2017-05-06T08:59:19.447Z,11.92
2017-05-06T09:01:46.080Z,11.17
2017-05-06T09:04:12.690Z,11.43
2017-05-06T09:06:39.334Z,11.72
2017-05-06T09:09:06.078Z,11.77
2017-05-06T09:11:32.695Z,12.03
2017-05-06T09:13:59.311Z,12.68
2017-05-06T09:16:26.028Z,12.50
2017-05-06T09:18:52.672Z,13.48
2017-05-06T09:21:19.299Z,13.30
2017-05-06T09:23:45.934Z,12.35
2017-05-06T09:26:12.587Z,13.15
2017-05-06T09:28:39.203Z,12.63
2017-05-06T09:31:05.865Z,10.38
2017-05-06T09:33:32.483Z,10.60
2017-05-06T09:35:59.098Z,11.32
2017-05-06T09:38:25.760Z,11.62
2017-05-06T09:40:53.352Z,13.05
2017-05-06T09:43:19.999Z,19.33
2017-05-06T09:45:47.955Z,11.83
2017-05-06T09:48:14.659Z,33.43
2017-05-06T09:50:42.359Z,12.38
2017-05-06T09:53:11.100Z,17.58
2017-05-06T09:55:39.715Z,37.60
2017-05-06T09:58:08.910Z,25.27
2017-05-06T10:00:39.057Z,22.78
2017-05-06T10:03:07.301Z,23.02
2017-05-06T10:05:34.276Z,23.57
2017-05-06T10:08:01.534Z,24.60
2017-05-06T10:10:28.887Z,17.28
2017-05-06T10:12:56.721Z,20.32
2017-05-06T10:15:24.005Z,30.88
2017-05-06T10:17:51.260Z,21.75
2017-05-06T10:20:18.821Z,16.42
2017-05-06T10:22:47.219Z,17.78
2017-05-06T10:25:15.942Z,14.48
2017-05-06T10:27:43.260Z,22.67
2017-05-06T10:30:10.064Z,13.77
2017-05-06T10:32:37.924Z,16.88
2017-05-06T10:35:04.567Z,24.12
2017-05-06T10:37:32.770Z,32.77
2017-05-06T10:40:01.057Z,21.95
2017-05-06T10:42:27.767Z,28.90
2017-05-06T10:44:54.488Z,23.62
2017-05-06T10:47:21.375Z,24.43
2017-05-06T10:49:48.031Z,13.50
2017-05-06T10:52:14.664Z,31.62
2017-05-06T10:54:41.284Z,23.48
2017-05-06T10:57:07.930Z,13.23
2017-05-06T10:59:34.563Z,18.48
2017-05-06T11:02:01.187Z,18.47
2017-05-06T11:04:27.920Z,14.60
2017-05-06T11:06:54.550Z,14.37
2017-05-06T11:09:21.163Z,15.40
2017-05-06T11:11:47.779Z,14.03
2017-05-06T11:14:14.414Z,17.20
2017-05-06T11:16:41.027Z,17.62
2017-05-06T11:19:07.641Z,12.92
2017-05-06T11:21:34.283Z,12.57
2017-05-06T11:24:00.903Z,17.20
2017-05-06T11:26:27.523Z,23.43
2017-05-06T11:28:54.155Z,16.68
2017-05-06T11:31:20.773Z,13.25
2017-05-06T11:33:47.386Z,12.50
2017-05-06T11:36:14.018Z,18.70
2017-05-06T11:38:40.626Z,8.32
2017-05-06T11:41:07.242Z,13.92
2017-05-06T11:43:33.878Z,10.58
2017-05-06T11:46:00.495Z,20.52
2017-05-06T11:48:27.111Z,13.97
2017-05-06T11:50:53.746Z,10.92
2017-05-06T11:53:20.363Z,14.58
2017-05-06T11:55:46.975Z,10.88
2017-05-06T11:58:13.610Z,11.27
2017-05-06T12:00:40.222Z,10.67
2017-05-06T12:03:06.831Z,9.55
2017-05-06T12:05:33.462Z,8.73
2017-05-06T12:08:00.075Z,30.40
2017-05-06T12:10:26.694Z,9.23
2017-05-06T12:12:53.324Z,9.10
2017-05-06T12:15:20.391Z,13.17
2017-05-06T12:17:47.012Z,11.18
2017-05-06T12:20:13.639Z,6.75
2017-05-06T12:22:40.263Z,11.47
2017-05-06T12:25:09.602Z,8.73
2017-05-06T12:27:36.262Z,10.40
2017-05-06T12:30:02.875Z,19.95
2017-05-06T12:32:29.509Z,32.98
2017-05-06T12:34:56.164Z,64.20
2017-05-06T12:37:23.098Z,13.68
2017-05-06T12:39:50.047Z,81.73
2017-05-06T12:42:16.922Z,18.27
2017-05-06T12:44:45.107Z,11.10
2017-05-06T12:47:12.114Z,32.12
2017-05-06T12:49:39.203Z,20.07
2017-05-06T12:52:06.210Z,56.52
2017-05-06T12:54:33.155Z,7.92
2017-05-06T12:57:00.127Z,53.88
2017-05-06T12:59:27.051Z,6.26
2017-05-06T13:01:54.292Z,20.66
2017-05-06T13:04:20.954Z,35.36
2017-05-06T13:06:47.566Z,49.00
2017-05-06T13:09:14.183Z,15.96
2017-05-06T13:11:40.812Z,12.46
2017-05-06T13:14:07.427Z,16.32
2017-05-06T13:16:34.039Z,35.40
2017-05-06T13:19:00.675Z,11.92
2017-05-06T13:21:27.294Z,46.18
2017-05-06T13:23:53.911Z,15.30
2017-05-06T13:26:20.549Z,26.08
2017-05-06T13:28:47.167Z,48.92
2017-05-06T13:31:13.791Z,27.30
2017-05-06T13:33:40.426Z,11.37
2017-05-06T13:36:07.051Z,9.25
2017-05-06T13:38:33.668Z,11.88
2017-05-06T13:41:00.303Z,17.92
2017-05-06T13:43:26.910Z,5.70
2017-05-06T13:45:53.523Z,4.52
2017-05-06T13:48:20.143Z,4.78
2017-05-06T13:50:46.751Z,5.32
2017-05-06T13:53:13.362Z,8.42
2017-05-06T13:55:39.995Z,4.44
2017-05-06T13:58:06.603Z,6.24
2017-05-06T14:00:33.207Z,7.90
2017-05-06T14:02:59.871Z,6.14
2017-05-06T14:05:26.491Z,21.22
2017-05-06T14:07:53.146Z,4.34
2017-05-06T14:10:19.755Z,8.02
2017-05-06T14:12:46.374Z,25.40
2017-05-06T14:15:13.004Z,5.22
2017-05-06T14:17:39.668Z,9.26
2017-05-06T14:20:06.275Z,5.30
2017-05-06T14:22:32.886Z,16.60
2017-05-06T14:24:59.650Z,18.42
2017-05-06T14:27:26.262Z,9.92
2017-05-06T14:29:52.899Z,20.42
2017-05-06T14:32:19.915Z,5.94
2017-05-06T14:34:46.523Z,5.20
2017-05-06T14:37:13.122Z,5.56
2017-05-06T14:39:39.828Z,4.10
2017-05-06T14:42:06.502Z,3.60
2017-05-06T14:44:33.127Z,3.48
2017-05-06T14:46:59.864Z,12.36
2017-05-06T14:49:26.512Z,4.34
2017-05-06T14:51:53.161Z,5.48
2017-05-06T14:54:19.786Z,8.92
2017-05-06T14:56:46.395Z,4.36
2017-05-06T14:59:13.078Z,4.24
2017-05-06T15:01:39.702Z,5.50
2017-05-06T15:04:06.322Z,3.86
2017-05-06T15:06:32.940Z,4.04
2017-05-06T15:08:59.618Z,4.62
2017-05-06T15:11:26.277Z,4.20
2017-05-06T15:13:52.883Z,4.58
2017-05-06T15:16:19.502Z,4.54
2017-05-06T15:18:46.114Z,4.36
2017-05-06T15:21:12.730Z,4.58
2017-05-06T15:23:39.355Z,5.32
2017-05-06T15:26:06.031Z,5.16
2017-05-06T15:28:32.635Z,4.38
2017-05-06T15:30:59.277Z,5.48
2017-05-06T15:33:25.887Z,4.36
2017-05-06T15:35:52.507Z,4.87
2017-05-06T15:38:19.128Z,4.45
2017-05-06T15:40:45.731Z,4.38
2017-05-06T15:43:13.604Z,4.12
2017-05-06T15:45:40.210Z,3.80
2017-05-06T15:48:06.848Z,3.92
2017-05-06T15:50:33.467Z,3.80
2017-05-06T15:53:00.086Z,3.24
2017-05-06T15:55:26.715Z,3.56
2017-05-06T15:57:53.319Z,3.70
2017-05-06T16:00:20.043Z,4.04
2017-05-06T16:02:46.715Z,4.46
2017-05-06T16:05:13.335Z,4.26
2017-05-06T16:07:39.994Z,4.84
2017-05-06T16:10:06.603Z,4.62
2017-05-06T16:12:33.214Z,4.64
2017-05-06T16:14:59.834Z,4.38
2017-05-06T16:17:26.551Z,4.48
2017-05-06T16:19:53.188Z,6.50
2017-05-06T16:22:19.799Z,5.80
2017-05-06T16:24:46.410Z,6.30
2017-05-06T16:27:13.036Z,4.97
2017-05-06T16:29:39.659Z,4.42
2017-05-06T16:32:06.267Z,5.42
2017-05-06T16:34:32.921Z,4.63
2017-05-06T16:36:59.622Z,5.02
2017-05-06T16:39:26.264Z,5.27
2017-05-06T16:41:52.863Z,5.25
2017-05-06T16:44:19.467Z,5.67
2017-05-06T16:46:46.079Z,5.78
2017-05-06T16:49:12.755Z,5.33
2017-05-06T16:51:39.364Z,5.33
2017-05-06T16:54:05.972Z,5.47
2017-05-06T16:56:32.574Z,4.62
2017-05-06T16:58:59.330Z,5.18
2017-05-06T17:01:25.936Z,5.15
2017-05-06T17:03:52.587Z,6.55
2017-05-06T17:06:19.194Z,5.85
2017-05-06T17:08:45.866Z,4.57
2017-05-06T17:11:12.504Z,5.48
2017-05-06T17:13:39.143Z,4.45
2017-05-06T17:16:05.851Z,4.93
2017-05-06T17:18:32.464Z,4.30
2017-05-06T17:20:59.071Z,4.93
2017-05-06T17:23:25.694Z,4.62
2017-05-06T17:25:52.307Z,4.47
2017-05-06T17:28:18.918Z,4.50
2017-05-06T17:30:45.582Z,5.00
2017-05-06T17:33:12.191Z,5.02
2017-05-06T17:35:38.895Z,4.47
2017-05-06T17:38:05.508Z,4.07
2017-05-06T17:40:32.115Z,4.12
2017-05-06T17:42:58.723Z,4.43
2017-05-06T17:45:25.331Z,4.33
2017-05-06T17:47:51.935Z,5.03
2017-05-06T17:50:18.626Z,4.92
2017-05-06T17:52:45.236Z,4.82
2017-05-06T17:55:11.864Z,4.95
2017-05-06T17:57:38.470Z,5.13
2017-05-06T18:00:05.083Z,4.67
2017-05-06T18:02:31.697Z,4.88
2017-05-06T18:04:58.335Z,5.13
2017-05-06T18:07:24.964Z,4.45
2017-05-06T18:09:51.567Z,4.65
2017-05-06T18:12:18.239Z,4.25
2017-05-06T18:14:44.851Z,4.38
2017-05-06T18:17:11.479Z,4.93
2017-05-06T18:19:38.196Z,4.85
2017-05-06T18:22:04.803Z,4.07
2017-05-06T18:24:31.410Z,6.08
2017-05-06T18:26:58.112Z,6.55
